Stinson Municipal Airport
KSSF : now visible

Airfield :











YOU CAN JOIN US ON...

 
LOGIN :

Register | Disclaimer

   EN    FR    IT 

 









Legend :    VFR   Marginal VFR   IFR   Intensive IFR   Very Intensive IFR
Visi :
Ceiling :
>= 8 km
>= 3000ft
5 to 8 km
1000 to 3000 ft
1500m to 5 km
500 to 1000 ft
800 to 1500m
200 to 500 ft
< 800m
< 200 ft
Symbols :   Thunderstorms  Fog  Heavy snow  Heavy precipitations  Wind > 20 kt







- Airport Elevation : 577 ft


KSSF - Stinson Municipal

CURRENT METAR :
  • 220053Z 14014G18KT 10SM FEW070 31/21 A2994 RMK AO2 SLP125 T03110211

EXPIRED METARs :
  • 212353Z 15010KT 10SM FEW060 33/21 A2992 RMK AO2 SLP119 60050 T03280211 10361 20267 55005
  • 212253Z 15011KT 10SM CLR 34/21 A2991 RMK AO2 SLP115 T03390211

TAF KSSF
Valid from the 22 at 00:00 until the 23 at 00:00 UTC


212320Z 2200/2224 12012KT P6SM VCSH FEW040
FM220100 12011KT P6SM FEW030 SCT250
FM220600 13008KT P6SM BKN011
FM221600 16009KT P6SM OVC030
FM221900 16008KT P6SM OVC050
No reported NOTAMs for that airfield.



MET'MAP, your aeronautical weather chart ! - Copyright ORBIFLY December 2007 - Disclaimer

ORBIFLY MET'MAP TEAM :

Programming & Development : Alexandra Zaïnal
Concept & Development : Baudouin d'Aumeries
Co-Development & Prog : Marc-Olivier Méhu
Technical & hardware support : Manuel Goepfert

Contact : metmap@orbifly.com




SOURCES & CREDITS :

   NOAA       Earth
Advisory